sensor_id;sensor_type;location;lat;lon;timestamp;temperature;humidity
3055;DHT22;1537;52.018;8.542;2023-07-31T00:00:16;15.70;99.90
3055;DHT22;1537;52.018;8.542;2023-07-31T00:03:39;15.70;99.90
3055;DHT22;1537;52.018;8.542;2023-07-31T00:07:05;15.80;99.90
3055;DHT22;1537;52.018;8.542;2023-07-31T00:10:29;15.80;99.90
3055;DHT22;1537;52.018;8.542;2023-07-31T00:13:53;15.80;99.90
3055;DHT22;1537;52.018;8.542;2023-07-31T00:17:17;15.80;99.90
3055;DHT22;1537;52.018;8.542;2023-07-31T00:20:41;15.80;99.90
3055;DHT22;1537;52.018;8.542;2023-07-31T00:24:06;15.90;99.90
3055;DHT22;1537;52.018;8.542;2023-07-31T00:27:30;15.90;99.90
3055;DHT22;1537;52.018;8.542;2023-07-31T00:30:53;15.90;99.90
3055;DHT22;1537;52.018;8.542;2023-07-31T00:34:21;16.00;99.90
3055;DHT22;1537;52.018;8.542;2023-07-31T00:37:44;15.90;99.90
3055;DHT22;1537;52.018;8.542;2023-07-31T00:41:09;15.90;99.90
3055;DHT22;1537;52.018;8.542;2023-07-31T00:44:33;15.90;99.90
3055;DHT22;1537;52.018;8.542;2023-07-31T00:47:57;15.90;99.90
3055;DHT22;1537;52.018;8.542;2023-07-31T00:51:20;16.00;99.90
3055;DHT22;1537;52.018;8.542;2023-07-31T00:54:45;16.00;99.90
3055;DHT22;1537;52.018;8.542;2023-07-31T00:58:10;16.00;99.90
3055;DHT22;1537;52.018;8.542;2023-07-31T01:01:34;15.90;99.90
3055;DHT22;1537;52.018;8.542;2023-07-31T01:04:58;16.00;99.90
3055;DHT22;1537;52.018;8.542;2023-07-31T01:08:28;15.90;99.90
3055;DHT22;1537;52.018;8.542;2023-07-31T01:11:57;15.90;99.90
3055;DHT22;1537;52.018;8.542;2023-07-31T01:15:25;15.90;99.90
3055;DHT22;1537;52.018;8.542;2023-07-31T01:18:48;15.80;99.90
3055;DHT22;1537;52.018;8.542;2023-07-31T01:22:31;15.90;99.90
3055;DHT22;1537;52.018;8.542;2023-07-31T01:26:06;15.80;99.90
3055;DHT22;1537;52.018;8.542;2023-07-31T01:29:41;15.70;99.90
3055;DHT22;1537;52.018;8.542;2023-07-31T01:33:06;15.70;99.90
3055;DHT22;1537;52.018;8.542;2023-07-31T01:36:32;15.70;99.90
3055;DHT22;1537;52.018;8.542;2023-07-31T01:39:55;15.60;99.90
3055;DHT22;1537;52.018;8.542;2023-07-31T01:43:20;15.50;99.90
3055;DHT22;1537;52.018;8.542;2023-07-31T01:46:44;15.50;99.90
3055;DHT22;1537;52.018;8.542;2023-07-31T01:50:09;15.50;99.90
3055;DHT22;1537;52.018;8.542;2023-07-31T01:53:33;15.30;99.90
3055;DHT22;1537;52.018;8.542;2023-07-31T01:56:56;15.10;99.90
3055;DHT22;1537;52.018;8.542;2023-07-31T02:00:21;15.10;99.90
3055;DHT22;1537;52.018;8.542;2023-07-31T02:03:45;15.10;99.90
3055;DHT22;1537;52.018;8.542;2023-07-31T02:07:09;15.10;99.90
3055;DHT22;1537;52.018;8.542;2023-07-31T02:10:33;15.10;99.90
3055;DHT22;1537;52.018;8.542;2023-07-31T02:13:57;15.10;99.90
3055;DHT22;1537;52.018;8.542;2023-07-31T02:17:22;15.10;99.90
3055;DHT22;1537;52.018;8.542;2023-07-31T02:20:49;15.10;99.90
3055;DHT22;1537;52.018;8.542;2023-07-31T02:24:14;15.00;99.90
3055;DHT22;1537;52.018;8.542;2023-07-31T02:27:37;15.00;99.90
3055;DHT22;1537;52.018;8.542;2023-07-31T02:31:01;15.00;99.90
3055;DHT22;1537;52.018;8.542;2023-07-31T02:34:26;15.00;99.90
3055;DHT22;1537;52.018;8.542;2023-07-31T02:37:50;15.10;99.90
3055;DHT22;1537;52.018;8.542;2023-07-31T02:41:14;15.00;99.90
3055;DHT22;1537;52.018;8.542;2023-07-31T02:44:38;14.90;99.90
3055;DHT22;1537;52.018;8.542;2023-07-31T02:48:01;14.90;99.90
3055;DHT22;1537;52.018;8.542;2023-07-31T02:51:26;14.90;99.90
3055;DHT22;1537;52.018;8.542;2023-07-31T02:54:50;14.90;99.90
3055;DHT22;1537;52.018;8.542;2023-07-31T02:58:14;14.80;99.90
3055;DHT22;1537;52.018;8.542;2023-07-31T03:01:37;14.80;99.90
3055;DHT22;1537;52.018;8.542;2023-07-31T03:05:01;14.90;99.90
3055;DHT22;1537;52.018;8.542;2023-07-31T03:08:26;14.90;99.90
3055;DHT22;1537;52.018;8.542;2023-07-31T03:11:50;14.90;99.90
3055;DHT22;1537;52.018;8.542;2023-07-31T03:15:14;15.00;99.90
3055;DHT22;1537;52.018;8.542;2023-07-31T03:18:38;15.00;99.90
3055;DHT22;1537;52.018;8.542;2023-07-31T03:22:02;15.00;99.90
3055;DHT22;1537;52.018;8.542;2023-07-31T03:25:27;15.10;99.90
3055;DHT22;1537;52.018;8.542;2023-07-31T03:28:51;15.20;99.90
3055;DHT22;1537;52.018;8.542;2023-07-31T03:32:15;15.30;99.90
3055;DHT22;1537;52.018;8.542;2023-07-31T03:35:39;15.30;99.90
3055;DHT22;1537;52.018;8.542;2023-07-31T03:39:03;15.40;99.90
3055;DHT22;1537;52.018;8.542;2023-07-31T03:42:28;15.50;99.90
3055;DHT22;1537;52.018;8.542;2023-07-31T03:45:52;15.50;99.90
3055;DHT22;1537;52.018;8.542;2023-07-31T03:49:16;15.60;99.90
3055;DHT22;1537;52.018;8.542;2023-07-31T03:52:40;15.70;99.90
3055;DHT22;1537;52.018;8.542;2023-07-31T03:56:04;15.80;99.90
3055;DHT22;1537;52.018;8.542;2023-07-31T03:59:29;15.80;99.90
3055;DHT22;1537;52.018;8.542;2023-07-31T04:02:53;15.80;99.90
3055;DHT22;1537;52.018;8.542;2023-07-31T04:06:17;15.80;99.90
3055;DHT22;1537;52.018;8.542;2023-07-31T04:09:42;15.80;99.90
3055;DHT22;1537;52.018;8.542;2023-07-31T04:13:06;15.90;99.90
3055;DHT22;1537;52.018;8.542;2023-07-31T04:16:31;15.90;99.90
3055;DHT22;1537;52.018;8.542;2023-07-31T04:19:54;15.90;99.90
3055;DHT22;1537;52.018;8.542;2023-07-31T04:23:18;15.90;99.90
3055;DHT22;1537;52.018;8.542;2023-07-31T04:26:42;15.90;99.90
3055;DHT22;1537;52.018;8.542;2023-07-31T04:30:06;15.80;99.90
3055;DHT22;1537;52.018;8.542;2023-07-31T04:33:31;15.80;99.90
3055;DHT22;1537;52.018;8.542;2023-07-31T04:36:55;15.80;99.90
3055;DHT22;1537;52.018;8.542;2023-07-31T04:40:19;15.90;99.90
3055;DHT22;1537;52.018;8.542;2023-07-31T04:43:42;15.90;99.90
3055;DHT22;1537;52.018;8.542;2023-07-31T04:47:06;15.80;99.90
3055;DHT22;1537;52.018;8.542;2023-07-31T04:50:31;15.80;99.90
3055;DHT22;1537;52.018;8.542;2023-07-31T04:53:56;15.90;99.90
3055;DHT22;1537;52.018;8.542;2023-07-31T04:57:19;15.80;99.90
3055;DHT22;1537;52.018;8.542;2023-07-31T05:00:43;15.80;99.90
3055;DHT22;1537;52.018;8.542;2023-07-31T05:04:07;15.80;99.90
3055;DHT22;1537;52.018;8.542;2023-07-31T05:07:31;15.90;99.90
3055;DHT22;1537;52.018;8.542;2023-07-31T05:10:55;15.90;99.90
3055;DHT22;1537;52.018;8.542;2023-07-31T05:14:19;15.90;99.90
3055;DHT22;1537;52.018;8.542;2023-07-31T05:17:43;15.90;99.90
3055;DHT22;1537;52.018;8.542;2023-07-31T05:21:07;15.90;99.90
3055;DHT22;1537;52.018;8.542;2023-07-31T05:24:32;15.90;99.90
3055;DHT22;1537;52.018;8.542;2023-07-31T05:27:55;16.00;99.90
3055;DHT22;1537;52.018;8.542;2023-07-31T05:31:19;16.00;99.90
3055;DHT22;1537;52.018;8.542;2023-07-31T05:34:44;16.10;99.90
3055;DHT22;1537;52.018;8.542;2023-07-31T05:38:08;16.10;99.90
3055;DHT22;1537;52.018;8.542;2023-07-31T05:41:34;16.10;99.90
3055;DHT22;1537;52.018;8.542;2023-07-31T05:44:58;16.10;99.90
3055;DHT22;1537;52.018;8.542;2023-07-31T05:48:22;16.10;99.90
3055;DHT22;1537;52.018;8.542;2023-07-31T05:51:46;16.10;99.90
3055;DHT22;1537;52.018;8.542;2023-07-31T05:55:09;16.20;99.90
3055;DHT22;1537;52.018;8.542;2023-07-31T05:58:34;16.20;99.90
3055;DHT22;1537;52.018;8.542;2023-07-31T06:01:58;16.20;99.90
3055;DHT22;1537;52.018;8.542;2023-07-31T06:05:21;16.20;99.90
3055;DHT22;1537;52.018;8.542;2023-07-31T06:08:45;16.20;99.90
3055;DHT22;1537;52.018;8.542;2023-07-31T06:12:09;16.30;99.90
3055;DHT22;1537;52.018;8.542;2023-07-31T06:15:34;16.30;99.90
3055;DHT22;1537;52.018;8.542;2023-07-31T06:18:57;16.30;99.90
3055;DHT22;1537;52.018;8.542;2023-07-31T06:22:21;16.40;99.90
3055;DHT22;1537;52.018;8.542;2023-07-31T06:25:45;16.40;99.90
3055;DHT22;1537;52.018;8.542;2023-07-31T06:29:08;16.40;99.90
3055;DHT22;1537;52.018;8.542;2023-07-31T06:32:34;16.40;99.90
3055;DHT22;1537;52.018;8.542;2023-07-31T06:35:58;16.50;99.90
3055;DHT22;1537;52.018;8.542;2023-07-31T06:39:22;16.50;99.90
3055;DHT22;1537;52.018;8.542;2023-07-31T06:42:46;16.60;99.90
3055;DHT22;1537;52.018;8.542;2023-07-31T06:46:10;16.60;99.90
3055;DHT22;1537;52.018;8.542;2023-07-31T06:49:35;16.60;99.90
3055;DHT22;1537;52.018;8.542;2023-07-31T06:52:59;16.60;99.90
3055;DHT22;1537;52.018;8.542;2023-07-31T06:56:22;16.60;99.90
3055;DHT22;1537;52.018;8.542;2023-07-31T06:59:46;16.60;99.90
3055;DHT22;1537;52.018;8.542;2023-07-31T07:03:10;16.70;99.90
3055;DHT22;1537;52.018;8.542;2023-07-31T07:06:35;16.70;99.90
3055;DHT22;1537;52.018;8.542;2023-07-31T07:09:59;16.80;99.90
3055;DHT22;1537;52.018;8.542;2023-07-31T07:13:23;16.70;99.90
3055;DHT22;1537;52.018;8.542;2023-07-31T07:16:50;16.80;99.90
3055;DHT22;1537;52.018;8.542;2023-07-31T07:20:14;16.90;99.90
3055;DHT22;1537;52.018;8.542;2023-07-31T07:23:39;16.80;99.90
3055;DHT22;1537;52.018;8.542;2023-07-31T07:27:03;16.80;99.90
3055;DHT22;1537;52.018;8.542;2023-07-31T07:30:27;16.70;99.90
3055;DHT22;1537;52.018;8.542;2023-07-31T07:33:50;16.80;99.90
3055;DHT22;1537;52.018;8.542;2023-07-31T07:37:14;16.80;99.90
3055;DHT22;1537;52.018;8.542;2023-07-31T07:40:40;16.90;99.90
3055;DHT22;1537;52.018;8.542;2023-07-31T07:44:04;16.80;99.90
3055;DHT22;1537;52.018;8.542;2023-07-31T07:47:27;16.90;99.90
3055;DHT22;1537;52.018;8.542;2023-07-31T07:50:51;16.80;99.90
3055;DHT22;1537;52.018;8.542;2023-07-31T07:54:15;16.70;99.90
3055;DHT22;1537;52.018;8.542;2023-07-31T07:57:40;16.60;99.90
3055;DHT22;1537;52.018;8.542;2023-07-31T08:01:04;16.50;99.90
3055;DHT22;1537;52.018;8.542;2023-07-31T08:04:27;16.50;99.90
3055;DHT22;1537;52.018;8.542;2023-07-31T08:07:51;16.40;99.90
3055;DHT22;1537;52.018;8.542;2023-07-31T08:11:15;16.30;99.90
3055;DHT22;1537;52.018;8.542;2023-07-31T08:14:40;16.40;99.90
3055;DHT22;1537;52.018;8.542;2023-07-31T08:18:03;16.50;99.90
3055;DHT22;1537;52.018;8.542;2023-07-31T08:21:27;16.60;99.90
3055;DHT22;1537;52.018;8.542;2023-07-31T08:24:51;16.60;99.90
3055;DHT22;1537;52.018;8.542;2023-07-31T08:28:15;16.60;99.90
3055;DHT22;1537;52.018;8.542;2023-07-31T08:31:40;16.60;99.90
3055;DHT22;1537;52.018;8.542;2023-07-31T08:35:04;16.90;99.90
3055;DHT22;1537;52.018;8.542;2023-07-31T08:38:28;17.10;99.90
3055;DHT22;1537;52.018;8.542;2023-07-31T08:41:58;17.10;99.90
3055;DHT22;1537;52.018;8.542;2023-07-31T08:45:22;17.20;99.90
3055;DHT22;1537;52.018;8.542;2023-07-31T08:48:47;17.00;99.90
3055;DHT22;1537;52.018;8.542;2023-07-31T08:52:11;17.10;99.90
3055;DHT22;1537;52.018;8.542;2023-07-31T08:55:35;16.90;99.90
3055;DHT22;1537;52.018;8.542;2023-07-31T08:59:01;16.90;99.90
3055;DHT22;1537;52.018;8.542;2023-07-31T09:02:31;16.90;99.90
3055;DHT22;1537;52.018;8.542;2023-07-31T09:05:59;17.00;99.90
3055;DHT22;1537;52.018;8.542;2023-07-31T09:09:25;16.90;99.90
3055;DHT22;1537;52.018;8.542;2023-07-31T09:12:48;16.90;99.90
3055;DHT22;1537;52.018;8.542;2023-07-31T09:16:12;16.80;99.90
3055;DHT22;1537;52.018;8.542;2023-07-31T09:19:36;16.80;99.90
3055;DHT22;1537;52.018;8.542;2023-07-31T09:23:08;16.80;99.90
3055;DHT22;1537;52.018;8.542;2023-07-31T09:26:33;16.80;99.90
3055;DHT22;1537;52.018;8.542;2023-07-31T09:29:59;17.00;99.90
3055;DHT22;1537;52.018;8.542;2023-07-31T09:33:23;17.00;99.90
3055;DHT22;1537;52.018;8.542;2023-07-31T09:36:49;17.20;99.90
3055;DHT22;1537;52.018;8.542;2023-07-31T09:40:27;17.00;99.90
3055;DHT22;1537;52.018;8.542;2023-07-31T09:43:54;17.00;99.90
3055;DHT22;1537;52.018;8.542;2023-07-31T09:47:22;17.00;99.90
3055;DHT22;1537;52.018;8.542;2023-07-31T09:50:48;17.10;99.90
3055;DHT22;1537;52.018;8.542;2023-07-31T09:54:13;17.20;99.90
3055;DHT22;1537;52.018;8.542;2023-07-31T09:57:40;17.20;99.90
3055;DHT22;1537;52.018;8.542;2023-07-31T10:01:05;17.20;99.90
3055;DHT22;1537;52.018;8.542;2023-07-31T10:04:29;17.20;99.90
3055;DHT22;1537;52.018;8.542;2023-07-31T10:07:54;17.20;99.90
3055;DHT22;1537;52.018;8.542;2023-07-31T10:11:18;17.20;99.90
3055;DHT22;1537;52.018;8.542;2023-07-31T10:14:44;17.30;99.90
3055;DHT22;1537;52.018;8.542;2023-07-31T10:18:08;17.30;99.90
3055;DHT22;1537;52.018;8.542;2023-07-31T10:21:32;17.30;99.90
3055;DHT22;1537;52.018;8.542;2023-07-31T10:24:58;17.40;99.90
3055;DHT22;1537;52.018;8.542;2023-07-31T10:28:22;17.40;99.90
3055;DHT22;1537;52.018;8.542;2023-07-31T10:31:50;17.50;99.90
3055;DHT22;1537;52.018;8.542;2023-07-31T10:35:16;17.50;99.90
3055;DHT22;1537;52.018;8.542;2023-07-31T10:38:40;17.40;99.90
3055;DHT22;1537;52.018;8.542;2023-07-31T10:42:11;17.50;99.90
3055;DHT22;1537;52.018;8.542;2023-07-31T10:45:36;17.40;99.90
3055;DHT22;1537;52.018;8.542;2023-07-31T10:49:03;17.30;99.90
3055;DHT22;1537;52.018;8.542;2023-07-31T10:52:34;17.30;99.90
3055;DHT22;1537;52.018;8.542;2023-07-31T10:55:59;17.30;99.90
3055;DHT22;1537;52.018;8.542;2023-07-31T10:59:26;17.10;99.90
3055;DHT22;1537;52.018;8.542;2023-07-31T11:02:57;17.10;99.90
3055;DHT22;1537;52.018;8.542;2023-07-31T11:06:28;17.20;99.90
3055;DHT22;1537;52.018;8.542;2023-07-31T11:09:52;17.20;99.90
3055;DHT22;1537;52.018;8.542;2023-07-31T11:13:17;17.30;99.90
3055;DHT22;1537;52.018;8.542;2023-07-31T11:16:41;17.40;99.90
3055;DHT22;1537;52.018;8.542;2023-07-31T11:20:06;17.30;99.90
3055;DHT22;1537;52.018;8.542;2023-07-31T11:23:32;17.40;99.90
3055;DHT22;1537;52.018;8.542;2023-07-31T11:26:56;17.30;99.90
3055;DHT22;1537;52.018;8.542;2023-07-31T11:30:20;17.20;99.90
3055;DHT22;1537;52.018;8.542;2023-07-31T11:33:43;17.20;99.90
3055;DHT22;1537;52.018;8.542;2023-07-31T11:37:09;17.20;99.90
3055;DHT22;1537;52.018;8.542;2023-07-31T11:40:41;17.30;99.90
3055;DHT22;1537;52.018;8.542;2023-07-31T11:44:05;17.60;99.90
3055;DHT22;1537;52.018;8.542;2023-07-31T11:47:49;17.50;99.90
3055;DHT22;1537;52.018;8.542;2023-07-31T11:51:14;17.50;99.90
3055;DHT22;1537;52.018;8.542;2023-07-31T11:54:38;17.40;99.90
3055;DHT22;1537;52.018;8.542;2023-07-31T11:58:03;17.40;99.90
3055;DHT22;1537;52.018;8.542;2023-07-31T12:01:27;17.30;99.90
3055;DHT22;1537;52.018;8.542;2023-07-31T12:04:51;17.40;99.90
3055;DHT22;1537;52.018;8.542;2023-07-31T12:08:15;17.60;99.90
3055;DHT22;1537;52.018;8.542;2023-07-31T12:11:47;17.70;99.90
3055;DHT22;1537;52.018;8.542;2023-07-31T12:15:16;17.60;99.90
3055;DHT22;1537;52.018;8.542;2023-07-31T12:18:40;17.60;99.90
3055;DHT22;1537;52.018;8.542;2023-07-31T12:22:11;17.60;99.90
3055;DHT22;1537;52.018;8.542;2023-07-31T12:25:35;17.70;99.90
3055;DHT22;1537;52.018;8.542;2023-07-31T12:28:59;17.70;99.90
3055;DHT22;1537;52.018;8.542;2023-07-31T12:32:24;17.60;99.90
3055;DHT22;1537;52.018;8.542;2023-07-31T12:35:52;17.60;99.90
3055;DHT22;1537;52.018;8.542;2023-07-31T12:39:15;17.70;99.90
3055;DHT22;1537;52.018;8.542;2023-07-31T12:42:39;17.70;99.90
3055;DHT22;1537;52.018;8.542;2023-07-31T12:46:04;17.70;99.90
3055;DHT22;1537;52.018;8.542;2023-07-31T12:49:29;17.70;99.90
3055;DHT22;1537;52.018;8.542;2023-07-31T12:52:55;17.60;99.90
3055;DHT22;1537;52.018;8.542;2023-07-31T12:56:19;17.60;99.90
3055;DHT22;1537;52.018;8.542;2023-07-31T12:59:44;17.60;99.90
3055;DHT22;1537;52.018;8.542;2023-07-31T13:03:07;17.50;99.90
3055;DHT22;1537;52.018;8.542;2023-07-31T13:06:33;17.40;99.90
3055;DHT22;1537;52.018;8.542;2023-07-31T13:09:56;17.40;99.90
3055;DHT22;1537;52.018;8.542;2023-07-31T13:13:20;17.80;99.90
3055;DHT22;1537;52.018;8.542;2023-07-31T13:16:44;18.00;99.90
3055;DHT22;1537;52.018;8.542;2023-07-31T13:20:08;18.20;99.90
3055;DHT22;1537;52.018;8.542;2023-07-31T13:23:34;18.30;99.90
3055;DHT22;1537;52.018;8.542;2023-07-31T13:26:57;18.50;99.90
3055;DHT22;1537;52.018;8.542;2023-07-31T13:30:22;18.70;99.90
3055;DHT22;1537;52.018;8.542;2023-07-31T13:33:45;18.80;99.90
3055;DHT22;1537;52.018;8.542;2023-07-31T13:37:09;19.10;99.90
3055;DHT22;1537;52.018;8.542;2023-07-31T13:40:34;19.20;99.90
3055;DHT22;1537;52.018;8.542;2023-07-31T13:43:58;19.20;99.90
3055;DHT22;1537;52.018;8.542;2023-07-31T13:47:22;19.30;99.90
3055;DHT22;1537;52.018;8.542;2023-07-31T13:50:45;19.40;99.90
3055;DHT22;1537;52.018;8.542;2023-07-31T13:54:09;19.50;99.90
3055;DHT22;1537;52.018;8.542;2023-07-31T13:57:35;19.50;99.90
3055;DHT22;1537;52.018;8.542;2023-07-31T14:00:59;19.60;99.90
3055;DHT22;1537;52.018;8.542;2023-07-31T14:04:23;19.70;99.90
3055;DHT22;1537;52.018;8.542;2023-07-31T14:07:46;19.60;99.90
3055;DHT22;1537;52.018;8.542;2023-07-31T14:11:10;19.60;99.90
3055;DHT22;1537;52.018;8.542;2023-07-31T14:14:38;19.50;99.90
3055;DHT22;1537;52.018;8.542;2023-07-31T14:18:01;19.50;99.90
3055;DHT22;1537;52.018;8.542;2023-07-31T14:21:26;19.30;99.90
3055;DHT22;1537;52.018;8.542;2023-07-31T14:24:49;19.20;99.90
3055;DHT22;1537;52.018;8.542;2023-07-31T14:28:13;19.10;99.90
3055;DHT22;1537;52.018;8.542;2023-07-31T14:31:38;19.00;99.90
3055;DHT22;1537;52.018;8.542;2023-07-31T14:35:02;19.10;99.90
3055;DHT22;1537;52.018;8.542;2023-07-31T14:38:25;19.20;99.90
3055;DHT22;1537;52.018;8.542;2023-07-31T14:41:49;19.20;99.90
3055;DHT22;1537;52.018;8.542;2023-07-31T14:45:13;19.10;99.90
3055;DHT22;1537;52.018;8.542;2023-07-31T14:48:38;19.10;99.90
3055;DHT22;1537;52.018;8.542;2023-07-31T14:52:02;19.00;99.90
3055;DHT22;1537;52.018;8.542;2023-07-31T14:55:26;18.90;99.90
3055;DHT22;1537;52.018;8.542;2023-07-31T14:58:50;18.90;99.90
3055;DHT22;1537;52.018;8.542;2023-07-31T15:02:15;19.00;99.90
3055;DHT22;1537;52.018;8.542;2023-07-31T15:05:40;19.20;99.90
3055;DHT22;1537;52.018;8.542;2023-07-31T15:09:03;19.40;99.90
3055;DHT22;1537;52.018;8.542;2023-07-31T15:12:27;19.30;99.90
3055;DHT22;1537;52.018;8.542;2023-07-31T15:15:51;19.40;99.90
3055;DHT22;1537;52.018;8.542;2023-07-31T15:19:14;19.40;99.90
3055;DHT22;1537;52.018;8.542;2023-07-31T15:22:39;19.60;99.90
3055;DHT22;1537;52.018;8.542;2023-07-31T15:26:03;19.60;99.90
3055;DHT22;1537;52.018;8.542;2023-07-31T15:29:27;19.60;99.90
3055;DHT22;1537;52.018;8.542;2023-07-31T15:32:51;19.50;99.90
3055;DHT22;1537;52.018;8.542;2023-07-31T15:36:15;19.40;99.90
3055;DHT22;1537;52.018;8.542;2023-07-31T15:39:41;19.30;99.90
3055;DHT22;1537;52.018;8.542;2023-07-31T15:43:04;19.30;99.90
3055;DHT22;1537;52.018;8.542;2023-07-31T15:46:28;19.30;99.90
3055;DHT22;1537;52.018;8.542;2023-07-31T15:49:51;19.20;99.90
3055;DHT22;1537;52.018;8.542;2023-07-31T15:53:15;19.20;99.90
3055;DHT22;1537;52.018;8.542;2023-07-31T15:56:40;19.20;99.90
3055;DHT22;1537;52.018;8.542;2023-07-31T16:00:05;19.30;99.90
3055;DHT22;1537;52.018;8.542;2023-07-31T16:03:29;19.20;99.90
3055;DHT22;1537;52.018;8.542;2023-07-31T16:06:53;19.10;99.90
3055;DHT22;1537;52.018;8.542;2023-07-31T16:10:17;19.10;99.90
3055;DHT22;1537;52.018;8.542;2023-07-31T16:13:42;19.10;99.90
3055;DHT22;1537;52.018;8.542;2023-07-31T16:17:05;19.10;99.90
3055;DHT22;1537;52.018;8.542;2023-07-31T16:20:29;19.00;99.90
3055;DHT22;1537;52.018;8.542;2023-07-31T16:23:53;19.00;99.90
3055;DHT22;1537;52.018;8.542;2023-07-31T16:27:17;19.00;99.90
3055;DHT22;1537;52.018;8.542;2023-07-31T16:30:42;19.00;99.90
3055;DHT22;1537;52.018;8.542;2023-07-31T16:34:09;19.00;99.90
3055;DHT22;1537;52.018;8.542;2023-07-31T16:37:33;19.00;99.90
3055;DHT22;1537;52.018;8.542;2023-07-31T16:40:57;19.00;99.90
3055;DHT22;1537;52.018;8.542;2023-07-31T16:44:20;19.00;99.90
3055;DHT22;1537;52.018;8.542;2023-07-31T16:47:45;19.00;99.90
3055;DHT22;1537;52.018;8.542;2023-07-31T16:51:09;19.00;99.90
3055;DHT22;1537;52.018;8.542;2023-07-31T16:54:33;19.00;99.90
3055;DHT22;1537;52.018;8.542;2023-07-31T16:57:56;18.90;99.90
3055;DHT22;1537;52.018;8.542;2023-07-31T17:01:20;18.90;99.90
3055;DHT22;1537;52.018;8.542;2023-07-31T17:04:46;18.90;99.90
3055;DHT22;1537;52.018;8.542;2023-07-31T17:08:09;18.70;99.90
3055;DHT22;1537;52.018;8.542;2023-07-31T17:11:34;18.70;99.90
3055;DHT22;1537;52.018;8.542;2023-07-31T17:14:58;18.60;99.90
3055;DHT22;1537;52.018;8.542;2023-07-31T17:18:21;18.40;99.90
3055;DHT22;1537;52.018;8.542;2023-07-31T17:21:46;18.30;99.90
3055;DHT22;1537;52.018;8.542;2023-07-31T17:25:10;18.30;99.90
3055;DHT22;1537;52.018;8.542;2023-07-31T17:28:34;18.20;99.90
3055;DHT22;1537;52.018;8.542;2023-07-31T17:31:57;18.10;99.90
3055;DHT22;1537;52.018;8.542;2023-07-31T17:35:21;18.10;99.90
3055;DHT22;1537;52.018;8.542;2023-07-31T17:38:46;18.00;99.90
3055;DHT22;1537;52.018;8.542;2023-07-31T17:42:10;17.90;99.90
3055;DHT22;1537;52.018;8.542;2023-07-31T17:45:33;17.90;99.90
3055;DHT22;1537;52.018;8.542;2023-07-31T17:48:57;17.80;99.90
3055;DHT22;1537;52.018;8.542;2023-07-31T17:52:21;17.80;99.90
3055;DHT22;1537;52.018;8.542;2023-07-31T17:55:46;17.70;99.90
3055;DHT22;1537;52.018;8.542;2023-07-31T17:59:10;17.70;99.90
3055;DHT22;1537;52.018;8.542;2023-07-31T18:02:34;17.70;99.90
3055;DHT22;1537;52.018;8.542;2023-07-31T18:06:00;17.60;99.90
3055;DHT22;1537;52.018;8.542;2023-07-31T18:09:24;17.60;99.90
3055;DHT22;1537;52.018;8.542;2023-07-31T18:12:49;17.60;99.90
3055;DHT22;1537;52.018;8.542;2023-07-31T18:16:13;17.60;99.90
3055;DHT22;1537;52.018;8.542;2023-07-31T18:19:36;17.70;99.90
3055;DHT22;1537;52.018;8.542;2023-07-31T18:23:00;17.70;99.90
3055;DHT22;1537;52.018;8.542;2023-07-31T18:26:27;17.70;99.90
3055;DHT22;1537;52.018;8.542;2023-07-31T18:29:55;17.70;99.90
3055;DHT22;1537;52.018;8.542;2023-07-31T18:33:20;17.70;99.90
3055;DHT22;1537;52.018;8.542;2023-07-31T18:36:47;17.60;99.90
3055;DHT22;1537;52.018;8.542;2023-07-31T18:40:12;17.60;99.90
3055;DHT22;1537;52.018;8.542;2023-07-31T18:43:37;17.60;99.90
3055;DHT22;1537;52.018;8.542;2023-07-31T18:47:03;17.60;99.90
3055;DHT22;1537;52.018;8.542;2023-07-31T18:50:26;17.60;99.90
3055;DHT22;1537;52.018;8.542;2023-07-31T18:53:56;17.50;99.90
3055;DHT22;1537;52.018;8.542;2023-07-31T18:57:20;17.50;99.90
3055;DHT22;1537;52.018;8.542;2023-07-31T19:00:44;17.50;99.90
3055;DHT22;1537;52.018;8.542;2023-07-31T19:04:09;17.50;99.90
3055;DHT22;1537;52.018;8.542;2023-07-31T19:07:33;17.50;99.90
3055;DHT22;1537;52.018;8.542;2023-07-31T19:10:56;17.40;99.90
3055;DHT22;1537;52.018;8.542;2023-07-31T19:14:22;17.30;99.90
3055;DHT22;1537;52.018;8.542;2023-07-31T19:17:46;17.40;99.90
3055;DHT22;1537;52.018;8.542;2023-07-31T19:21:11;17.30;99.90
3055;DHT22;1537;52.018;8.542;2023-07-31T19:24:36;17.30;99.90
3055;DHT22;1537;52.018;8.542;2023-07-31T19:28:02;17.30;99.90
3055;DHT22;1537;52.018;8.542;2023-07-31T19:31:25;17.20;99.90
3055;DHT22;1537;52.018;8.542;2023-07-31T19:34:49;17.20;99.90
3055;DHT22;1537;52.018;8.542;2023-07-31T19:38:14;17.10;99.90
3055;DHT22;1537;52.018;8.542;2023-07-31T19:41:37;17.10;99.90
3055;DHT22;1537;52.018;8.542;2023-07-31T19:45:02;17.00;99.90
3055;DHT22;1537;52.018;8.542;2023-07-31T19:48:26;17.00;99.90
3055;DHT22;1537;52.018;8.542;2023-07-31T19:51:49;17.00;99.90
3055;DHT22;1537;52.018;8.542;2023-07-31T19:55:14;16.90;99.90
3055;DHT22;1537;52.018;8.542;2023-07-31T19:58:39;16.90;99.90
3055;DHT22;1537;52.018;8.542;2023-07-31T20:02:03;16.90;99.90
3055;DHT22;1537;52.018;8.542;2023-07-31T20:05:28;16.90;99.90
3055;DHT22;1537;52.018;8.542;2023-07-31T20:08:51;16.90;99.90
3055;DHT22;1537;52.018;8.542;2023-07-31T20:12:16;16.90;99.90
3055;DHT22;1537;52.018;8.542;2023-07-31T20:15:40;16.80;99.90
3055;DHT22;1537;52.018;8.542;2023-07-31T20:19:04;16.80;99.90
3055;DHT22;1537;52.018;8.542;2023-07-31T20:22:27;16.70;99.90
3055;DHT22;1537;52.018;8.542;2023-07-31T20:25:51;16.70;99.90
3055;DHT22;1537;52.018;8.542;2023-07-31T20:29:16;16.70;99.90
3055;DHT22;1537;52.018;8.542;2023-07-31T20:32:40;16.60;99.90
3055;DHT22;1537;52.018;8.542;2023-07-31T20:36:04;16.60;99.90
3055;DHT22;1537;52.018;8.542;2023-07-31T20:39:28;16.60;99.90
3055;DHT22;1537;52.018;8.542;2023-07-31T20:42:56;16.60;99.90
3055;DHT22;1537;52.018;8.542;2023-07-31T20:46:21;16.60;99.90
3055;DHT22;1537;52.018;8.542;2023-07-31T20:49:45;16.60;99.90
3055;DHT22;1537;52.018;8.542;2023-07-31T20:53:08;16.50;99.90
3055;DHT22;1537;52.018;8.542;2023-07-31T20:56:33;16.50;99.90
3055;DHT22;1537;52.018;8.542;2023-07-31T20:59:57;16.50;99.90
3055;DHT22;1537;52.018;8.542;2023-07-31T21:03:22;16.50;99.90
3055;DHT22;1537;52.018;8.542;2023-07-31T21:06:45;16.50;99.90
3055;DHT22;1537;52.018;8.542;2023-07-31T21:10:09;16.50;99.90
3055;DHT22;1537;52.018;8.542;2023-07-31T21:13:33;16.50;99.90
3055;DHT22;1537;52.018;8.542;2023-07-31T21:16:57;16.50;99.90
3055;DHT22;1537;52.018;8.542;2023-07-31T21:20:22;16.50;99.90
3055;DHT22;1537;52.018;8.542;2023-07-31T21:23:46;16.50;99.90
3055;DHT22;1537;52.018;8.542;2023-07-31T21:27:10;16.50;99.90
3055;DHT22;1537;52.018;8.542;2023-07-31T21:30:34;16.50;99.90
3055;DHT22;1537;52.018;8.542;2023-07-31T21:33:57;16.50;99.90
3055;DHT22;1537;52.018;8.542;2023-07-31T21:37:22;16.50;99.90
3055;DHT22;1537;52.018;8.542;2023-07-31T21:40:46;16.50;99.90
3055;DHT22;1537;52.018;8.542;2023-07-31T21:44:09;16.50;99.90
3055;DHT22;1537;52.018;8.542;2023-07-31T21:47:33;16.60;99.90
3055;DHT22;1537;52.018;8.542;2023-07-31T21:50:57;16.50;99.90
3055;DHT22;1537;52.018;8.542;2023-07-31T21:54:22;16.60;99.90
3055;DHT22;1537;52.018;8.542;2023-07-31T21:57:45;16.60;99.90
3055;DHT22;1537;52.018;8.542;2023-07-31T22:01:09;16.60;99.90
3055;DHT22;1537;52.018;8.542;2023-07-31T22:04:33;16.60;99.90
3055;DHT22;1537;52.018;8.542;2023-07-31T22:07:56;16.60;99.90
3055;DHT22;1537;52.018;8.542;2023-07-31T22:11:21;16.60;99.90
3055;DHT22;1537;52.018;8.542;2023-07-31T22:14:45;16.70;99.90